Cove Fort, Utah
Current Conditions -  °F | °C
As of 7:52 PM on Friday 21 Nov 2014 (Local Time) from KMLF Reporting Station
Haze Haze  
Wind Chill: 31°   Ceiling: Unl
Heat Index: 35°   Visibility: 4mi
Dew Point: 24°   Wind: 5mph
Humidity: 64%   Direction: 230°SW
Pressure: 30.01"   Gusts: NA
Location:  38.344°N, 112.579°W
Report Text: KMLF 220252Z AUTO 23004KT 4SM HZ CLR 02/M04 A3001 RMK AO2 SLP177 T00171044 51010 TSNO
Loading
Personal Weather Stations






























Interactive Weather Map New forecast layout! Learn more

10-Day Weather Forecast

Advertisements
Track Severe Weather on mobile